< < Back
Terminal Aerodrome Forecast


Current Version              Previous Versions:   1  2  3  4  5  6  7  8  9  

Terminal Aerodrome Forecast

417
FTUS42 KFFC 301549 AAB
TAFATL
TAF AMD
KATL 301549Z 3016/0118 31006KT P6SM SCT050
     FM010100 23005KT P6SM SCT100 BKN250
     FM011500 28006KT P6SM SCT050=

Latest METAR

810
SAUS70 KWBC 301500 RRH
MTRATL
METAR KATL 301452Z 00000KT 10SM FEW035 FEW250 28/19 A3000 RMK AO2 SLP146
T02830194 50002


USA.gov is the U.S. government's official web portal to all federal, state and local government web resources and services.